Time;durP1;ratioP1;P1;durP2;ratioP2;P2;SDS_P1;SDS_P2;PMS_P1;PMS_P2;Temp;Humidity;BMP_temperature;BMP_pressure;BME280_temperature;BME280_humidity;BME280_pressure;Samples;Min_cycle;Max_cycle;Signal;HPM_P1;HPM_P2
2021/09/18 00:01:27;;;;;;;0.60;0.47;;;;;;;12.30;96.47;99193.34;1694262;82;21049;-63
2021/09/18 00:03:53;;;;;;;0.57;0.40;;;;;;;12.27;96.46;99190.44;1698883;82;20919;-63
2021/09/18 00:06:20;;;;;;;0.90;0.50;;;;;;;12.25;96.48;99196.23;1698143;82;20935;-63
2021/09/18 00:08:47;;;;;;;1.13;0.50;;;;;;;12.25;96.45;99206.70;1697245;82;21361;-63
2021/09/18 00:11:13;;;;;;;0.63;0.40;;;;;;;12.22;96.48;99206.89;1696555;83;20891;-63
2021/09/18 00:13:40;;;;;;;0.50;0.50;;;;;;;12.18;96.55;99200.16;1699970;82;21039;-63
2021/09/18 00:16:07;;;;;;;1.15;0.55;;;;;;;12.16;96.59;99200.74;1692935;82;20927;-63
2021/09/18 00:18:33;;;;;;;5.50;0.57;;;;;;;12.15;96.60;99202.96;1695002;82;20992;-63
2021/09/18 00:21:02;;;;;;;0.45;0.30;;;;;;;12.12;96.66;99200.54;1696468;82;21020;-63
2021/09/18 00:23:30;;;;;;;0.53;0.40;;;;;;;12.11;96.62;99204.11;1691895;83;21001;-63
2021/09/18 00:25:56;;;;;;;0.62;0.50;;;;;;;12.11;96.54;99208.50;1695514;82;21025;-62
2021/09/18 00:28:23;;;;;;;0.40;0.30;;;;;;;12.09;96.56;99205.97;1678737;83;20988;-63
2021/09/18 00:30:50;;;;;;;0.50;0.40;;;;;;;12.06;96.60;99206.16;1698397;82;20864;-62
2021/09/18 00:33:17;;;;;;;0.43;0.30;;;;;;;12.04;96.64;99198.42;1693548;83;20932;-62
2021/09/18 00:35:43;;;;;;;1.85;0.30;;;;;;;12.02;96.54;99207.30;1696998;81;20986;-62
2021/09/18 00:38:12;;;;;;;1.25;0.25;;;;;;;11.98;96.48;99205.78;1695110;82;21118;-62
2021/09/18 00:40:40;;;;;;;0.40;0.20;;;;;;;11.93;96.51;99205.22;1695330;83;21462;-62
2021/09/18 00:43:07;;;;;;;;;;;;;;;11.86;96.72;99205.59;1698229;83;21024;-61
2021/09/18 00:45:34;;;;;;;1.20;0.25;;;;;;;11.82;96.88;99206.70;1695284;82;20192;-61
2021/09/18 00:48:00;;;;;;;0.40;0.30;;;;;;;11.79;96.83;99202.97;1694324;82;21532;-61
2021/09/18 00:50:27;;;;;;;0.40;0.30;;;;;;;11.79;96.86;99207.33;1692709;82;21543;-61
2021/09/18 00:52:54;;;;;;;0.20;0.20;;;;;;;11.79;96.84;99213.43;1696121;82;20884;-61
2021/09/18 00:55:21;;;;;;;0.80;0.30;;;;;;;11.75;96.74;99221.07;1699178;82;20931;-61
2021/09/18 00:57:48;;;;;;;0.17;0.10;;;;;;;11.71;96.80;99219.59;1673096;83;20953;-61
2021/09/18 01:00:17;;;;;;;0.72;0.28;;;;;;;11.61;97.25;99215.83;1693511;82;21009;-61
2021/09/18 01:02:44;;;;;;;0.88;0.30;;;;;;;11.55;96.82;99226.66;1700026;82;22021;-62
2021/09/18 01:05:11;;;;;;;0.25;0.17;;;;;;;11.49;96.87;99227.02;1693439;82;20909;-61
2021/09/18 01:07:39;;;;;;;0.33;0.23;;;;;;;11.46;96.91;99227.20;1672616;83;21474;-61
2021/09/18 01:10:07;;;;;;;;;;;;;;;11.44;96.97;99229.89;1676582;83;21646;-62
2021/09/18 01:12:34;;;;;;;0.40;0.30;;;;;;;11.42;97.22;99229.97;1667382;84;20183;-61
2021/09/18 01:15:01;;;;;;;0.30;0.20;;;;;;;11.38;97.03;99227.64;1692406;82;21924;-62
2021/09/18 01:17:27;;;;;;;0.35;0.20;;;;;;;11.35;97.18;99235.20;1694233;82;21513;-61
2021/09/18 01:19:54;;;;;;;0.53;0.20;;;;;;;11.31;97.24;99240.20;1688498;83;20872;-61
2021/09/18 01:22:24;;;;;;;1.00;0.43;;;;;;;11.29;97.39;99239.48;1702430;82;20983;-61
2021/09/18 01:24:51;;;;;;;0.37;0.20;;;;;;;11.24;97.67;99233.67;1691808;83;21431;-61
2021/09/18 01:27:18;;;;;;;0.20;0.20;;;;;;;11.20;97.39;99246.52;1668408;84;22218;-61
2021/09/18 01:29:45;;;;;;;;;;;;;;;11.19;97.46;99240.93;1699329;83;20903;-61
2021/09/18 01:32:18;;;;;;;0.37;0.30;;;;;;;11.17;97.49;99241.03;1695156;83;20117;-61
2021/09/18 01:34:45;;;;;;;0.42;0.30;;;;;;;11.15;97.51;99236.83;1694679;82;20890;-61
2021/09/18 01:37:12;;;;;;;0.33;0.30;;;;;;;11.16;97.34;99241.11;1694639;82;20904;-62
2021/09/18 01:39:39;;;;;;;0.65;0.40;;;;;;;11.14;97.77;99242.95;1695546;83;21277;-61
2021/09/18 01:42:06;;;;;;;0.50;0.20;;;;;;;11.13;97.43;99241.28;1695580;82;20895;-61
2021/09/18 01:44:33;;;;;;;0.50;0.40;;;;;;;11.10;97.28;99238.85;1693406;82;21460;-61
2021/09/18 01:47:00;;;;;;;2.87;0.30;;;;;;;11.08;97.38;99244.63;1709667;80;20891;-61
2021/09/18 01:49:28;;;;;;;0.30;0.25;;;;;;;11.05;97.31;99248.72;1735321;81;21014;-61
2021/09/18 01:52:06;;;;;;;0.30;0.30;;;;;;;11.03;97.32;99245.34;1736062;80;21855;-61
2021/09/18 01:54:28;;;;;;;0.82;0.30;;;;;;;11.01;97.38;99247.19;1735574;80;20891;-61
2021/09/18 01:56:55;;;;;;;0.60;0.30;;;;;;;10.97;97.41;99247.36;1706668;81;20880;-61
2021/09/18 01:59:21;;;;;;;0.30;0.20;;;;;;;10.95;97.37;99247.94;1729770;80;20942;-61
2021/09/18 02:01:48;;;;;;;0.43;0.40;;;;;;;10.90;97.66;99246.05;1732557;82;20974;-61
2021/09/18 02:04:16;;;;;;;0.23;0.20;;;;;;;10.89;97.57;99252.17;1735501;80;21209;-61
2021/09/18 02:06:43;;;;;;;0.75;0.37;;;;;;;10.86;97.69;99257.57;1723027;81;20931;-61
2021/09/18 02:09:10;;;;;;;0.35;0.35;;;;;;;10.80;97.51;99250.55;1694957;81;24692;-61
2021/09/18 02:11:37;;;;;;;0.85;0.25;;;;;;;10.76;97.45;99261.64;1732171;80;21501;-61
2021/09/18 02:14:04;;;;;;;1.57;0.23;;;;;;;10.69;97.49;99252.45;1732060;80;20959;-61
2021/09/18 02:16:31;;;;;;;1.50;0.50;;;;;;;10.66;97.45;99253.92;1727626;80;21127;-61
2021/09/18 02:18:57;;;;;;;1.67;1.02;;;;;;;10.63;97.52;99255.41;1731155;80;20924;-62
2021/09/18 02:21:24;;;;;;;3.05;0.60;;;;;;;10.60;97.54;99255.11;1734068;80;20976;-62
2021/09/18 02:23:52;;;;;;;1.05;0.40;;;;;;;10.58;97.68;99256.11;1678460;83;20955;-62
2021/09/18 02:26:19;;;;;;;0.40;0.37;;;;;;;10.56;97.76;99264.48;1679274;83;21576;-62
2021/09/18 02:28:45;;;;;;;1.32;0.60;;;;;;;10.56;97.73;99273.62;1735170;80;21505;-62
2021/09/18 02:31:12;;;;;;;1.22;0.57;;;;;;;10.55;97.82;99278.47;1731221;81;20944;-61
2021/09/18 02:33:39;;;;;;;0.93;0.30;;;;;;;10.51;97.68;99268.20;1732996;80;20947;-61
2021/09/18 02:36:06;;;;;;;1.05;0.50;;;;;;;10.48;97.79;99273.59;1730995;82;21016;-62
2021/09/18 02:38:33;;;;;;;0.70;0.70;;;;;;;10.48;97.75;99264.45;1728089;80;20923;-62
2021/09/18 02:40:59;;;;;;;0.50;0.50;;;;;;;10.49;97.70;99262.21;1736836;80;21059;-61
2021/09/18 02:43:26;;;;;;;2.52;1.02;;;;;;;10.47;97.82;99263.22;1735908;80;20914;-61
2021/09/18 02:45:54;;;;;;;3.70;0.93;;;;;;;10.47;97.82;99266.70;1726555;80;21385;-62
2021/09/18 02:48:22;;;;;;;1.65;0.72;;;;;;;10.45;97.79;99269.84;1738728;80;21426;-61
2021/09/18 02:50:50;;;;;;;1.00;0.80;;;;;;;10.46;97.76;99272.82;1738138;81;21504;-61
2021/09/18 02:53:17;;;;;;;1.00;0.70;;;;;;;10.45;97.77;99280.28;1750742;80;21027;-61
2021/09/18 02:55:43;;;;;;;1.17;0.63;;;;;;;10.46;97.73;99271.52;1730297;81;20941;-61
2021/09/18 02:58:10;;;;;;;0.82;0.70;;;;;;;10.44;97.99;99272.05;1731892;81;21025;-62
2021/09/18 03:00:37;;;;;;;1.17;0.80;;;;;;;10.40;97.95;99278.38;1732934;80;20935;-62
2021/09/18 03:03:04;;;;;;;0.85;0.80;;;;;;;10.38;97.91;99276.77;1725659;81;21495;-61
2021/09/18 03:05:30;;;;;;;1.53;0.77;;;;;;;10.37;97.90;99275.94;1740121;80;21572;-61
2021/09/18 03:07:57;;;;;;;0.93;0.60;;;;;;;10.34;97.97;99276.09;1742172;80;20929;-62
2021/09/18 03:10:24;;;;;;;1.60;0.60;;;;;;;10.35;97.96;99288.69;1731967;80;20918;-62
2021/09/18 03:12:51;;;;;;;1.63;0.80;;;;;;;10.34;97.91;99286.54;1731236;80;20973;-61
2021/09/18 03:15:17;;;;;;;3.80;1.55;;;;;;;10.32;97.95;99281.86;1733528;80;20918;-62
2021/09/18 03:17:44;;;;;;;1.07;0.80;;;;;;;10.30;98.21;99292.83;1737925;80;21038;-61
2021/09/18 03:20:12;;;;;;;0.98;0.70;;;;;;;10.28;98.11;99279.05;1736311;81;20934;-62
2021/09/18 03:22:38;;;;;;;0.70;0.70;;;;;;;10.26;98.28;99282.16;1737849;80;21048;-61
2021/09/18 03:25:07;;;;;;;0.70;0.60;;;;;;;10.24;98.17;99286.13;1733662;80;20953;-62
2021/09/18 03:27:34;;;;;;;1.67;0.90;;;;;;;10.23;98.13;99286.23;1738318;80;21500;-61
2021/09/18 03:30:01;;;;;;;0.88;0.70;;;;;;;10.22;98.15;99281.92;1734729;80;21059;-61
2021/09/18 03:32:28;;;;;;;0.70;0.70;;;;;;;10.20;98.16;99296.83;1738835;80;20899;-61
2021/09/18 03:34:56;;;;;;;1.35;0.60;;;;;;;10.19;98.08;99283.39;1731324;81;20914;-62
2021/09/18 03:37:23;;;;;;;1.60;0.80;;;;;;;10.17;98.22;99287.87;1723322;80;20920;-62
2021/09/18 03:39:49;;;;;;;2.12;0.72;;;;;;;10.17;98.31;99302.22;1732607;80;20991;-62
2021/09/18 03:42:16;;;;;;;3.43;1.00;;;;;;;10.17;98.20;99286.56;1738155;80;22102;-62
2021/09/18 03:44:43;;;;;;;1.63;1.10;;;;;;;10.17;98.16;99291.78;1740817;80;20933;-61
2021/09/18 03:47:09;;;;;;;0.98;0.75;;;;;;;10.15;98.33;99296.23;1730681;80;20959;-62
2021/09/18 03:49:36;;;;;;;2.00;0.87;;;;;;;10.14;98.28;99294.52;1735000;80;21470;-62
2021/09/18 03:52:03;;;;;;;1.27;1.17;;;;;;;10.14;98.26;99299.73;1743240;80;20927;-61
2021/09/18 03:54:30;;;;;;;1.12;0.93;;;;;;;10.15;98.22;99301.44;1741977;80;24508;-61
2021/09/18 03:56:56;;;;;;;3.50;0.90;;;;;;;10.13;98.43;99304.59;1741626;80;20931;-61
2021/09/18 03:59:24;;;;;;;1.27;0.93;;;;;;;10.09;98.57;99298.69;1739095;80;21927;-61
2021/09/18 04:01:51;;;;;;;2.58;1.62;;;;;;;10.07;98.53;99302.67;1734980;80;20901;-61
2021/09/18 04:04:18;;;;;;;3.37;1.15;;;;;;;10.04;98.59;99321.09;1738027;80;20999;-61
2021/09/18 04:06:47;;;;;;;2.42;1.20;;;;;;;10.04;98.53;99305.44;1744061;80;22123;-61
2021/09/18 04:09:13;;;;;;;2.47;1.30;;;;;;;10.02;98.46;99300.76;1737133;80;21618;-61
2021/09/18 04:11:41;;;;;;;1.77;1.27;;;;;;;10.02;98.43;99309.05;1735539;80;20955;-61
2021/09/18 04:14:07;;;;;;;1.10;1.00;;;;;;;10.01;98.47;99316.03;1742533;81;20948;-61
2021/09/18 04:16:35;;;;;;;1.70;1.27;;;;;;;9.99;98.43;99306.13;1739093;80;21560;-61
2021/09/18 04:19:02;;;;;;;1.00;0.90;;;;;;;10.00;98.67;99311.75;1739727;81;21558;-61
2021/09/18 04:21:29;;;;;;;0.70;0.70;;;;;;;9.99;98.42;99312.66;1737965;80;21498;-62
2021/09/18 04:23:56;;;;;;;1.87;1.05;;;;;;;9.99;98.40;99314.42;1738514;80;20962;-62
2021/09/18 04:26:22;;;;;;;2.73;1.13;;;;;;;9.98;98.42;99310.98;1739051;80;20930;-61
2021/09/18 04:28:50;;;;;;;0.98;0.90;;;;;;;9.99;98.48;99317.88;1741501;80;21641;-62
2021/09/18 04:31:17;;;;;;;1.67;1.20;;;;;;;9.98;98.49;99318.80;1737775;81;21968;-61
2021/09/18 04:33:43;;;;;;;3.20;1.13;;;;;;;9.97;98.68;99324.95;1739858;81;21526;-61
2021/09/18 04:36:10;;;;;;;1.65;1.00;;;;;;;9.94;98.71;99316.42;1739084;81;21562;-61
2021/09/18 04:38:37;;;;;;;1.67;1.20;;;;;;;9.95;98.65;99317.66;1736423;80;20961;-61
2021/09/18 04:41:04;;;;;;;1.63;1.40;;;;;;;9.94;98.73;99324.25;1739295;80;21478;-61
2021/09/18 04:43:31;;;;;;;2.10;1.60;;;;;;;9.92;99.14;99319.59;1737688;81;22014;-61
2021/09/18 04:45:58;;;;;;;7.28;2.30;;;;;;;9.92;98.97;99321.73;1741275;80;20968;-61
2021/09/18 04:48:25;;;;;;;3.98;2.27;;;;;;;9.92;98.88;99339.98;1740125;80;20995;-60
2021/09/18 04:50:52;;;;;;;6.08;3.42;;;;;;;9.91;99.07;99330.45;1741089;80;20931;-60
2021/09/18 04:53:19;;;;;;;;;;;;;;;9.91;99.09;99334.37;1738926;80;20924;-61
2021/09/18 04:55:46;;;;;;;5.17;2.58;;;;;;;9.91;99.11;99338.28;1740768;80;21873;-61
2021/09/18 04:58:12;;;;;;;7.83;2.37;;;;;;;9.90;99.15;99344.42;1739479;80;20929;-61
2021/09/18 05:00:39;;;;;;;2.80;1.82;;;;;;;9.91;99.14;99340.89;1741173;81;22124;-61
2021/09/18 05:03:08;;;;;;;4.17;1.47;;;;;;;9.93;99.05;99349.48;1740887;80;21506;-61
2021/09/18 05:05:35;;;;;;;5.20;3.10;;;;;;;9.94;99.08;99353.80;1738261;80;20982;-61
2021/09/18 05:08:01;;;;;;;2.87;1.57;;;;;;;9.94;99.01;99345.98;1737997;79;21934;-61
2021/09/18 05:10:29;;;;;;;3.00;1.67;;;;;;;9.94;99.16;99348.58;1738138;79;21443;-61
2021/09/18 05:12:55;;;;;;;2.20;1.25;;;;;;;9.90;99.15;99352.25;1738882;80;22825;-61
2021/09/18 05:15:22;;;;;;;2.75;1.30;;;;;;;9.92;99.15;99347.81;1738325;80;22008;-61
2021/09/18 05:17:49;;;;;;;3.37;1.98;;;;;;;9.91;99.16;99351.31;1737083;80;21376;-61
2021/09/18 05:20:16;;;;;;;3.30;2.47;;;;;;;9.91;99.17;99348.71;1736702;81;21206;-61
2021/09/18 05:22:43;;;;;;;2.80;1.37;;;;;;;9.90;99.18;99357.47;1735930;80;21055;-61
2021/09/18 05:25:10;;;;;;;3.62;1.80;;;;;;;9.89;99.26;99347.09;1736213;80;21010;-61
2021/09/18 05:27:38;;;;;;;5.03;2.05;;;;;;;9.87;99.44;99358.93;1738739;80;20975;-61
2021/09/18 05:30:07;;;;;;;4.83;1.95;;;;;;;9.86;99.33;99353.34;1740754;80;20975;-61
2021/09/18 05:32:34;;;;;;;6.67;2.47;;;;;;;9.86;99.34;99353.34;1741040;79;21880;-61
2021/09/18 05:35:01;;;;;;;2.25;1.65;;;;;;;9.88;99.43;99387.98;1720412;82;26921;-61
2021/09/18 05:37:28;;;;;;;3.52;1.92;;;;;;;9.86;99.37;99363.77;1739458;81;20998;-61
2021/09/18 05:39:55;;;;;;;4.23;2.00;;;;;;;9.85;99.31;99362.06;1743192;79;20946;-61
2021/09/18 05:42:21;;;;;;;4.37;2.30;;;;;;;9.86;99.31;99356.78;1739528;80;21751;-61
2021/09/18 05:44:48;;;;;;;3.07;2.33;;;;;;;9.87;99.37;99368.05;1742462;80;21883;-61
2021/09/18 05:47:15;;;;;;;2.90;2.15;;;;;;;9.88;99.31;99364.52;1737307;80;21313;-61
2021/09/18 05:49:42;;;;;;;2.67;1.70;;;;;;;9.86;99.42;99366.38;1705597;81;20910;-62
2021/09/18 05:52:08;;;;;;;1.67;1.50;;;;;;;9.86;99.37;99385.94;1703570;82;20966;-62
2021/09/18 05:54:35;;;;;;;2.37;1.73;;;;;;;9.85;99.31;99385.53;1662726;85;20959;-62
2021/09/18 05:57:02;;;;;;;2.77;1.70;;;;;;;9.72;99.07;99363.59;1670520;84;21055;-62
2021/09/18 05:59:29;;;;;;;2.10;1.40;;;;;;;9.72;99.07;99363.59;1667179;83;21663;-62
2021/09/18 06:01:56;;;;;;;2.87;1.70;;;;;;;9.80;99.30;99392.73;1708426;82;20959;-62
2021/09/18 06:04:23;;;;;;;1.95;1.30;;;;;;;9.77;99.33;99409.37;1708570;82;20990;-62
2021/09/18 06:06:52;;;;;;;2.33;1.70;;;;;;;9.71;99.39;99390.59;1704068;82;21039;-60
2021/09/18 06:09:19;;;;;;;2.75;1.85;;;;;;;9.68;99.32;99402.47;1708161;82;21239;-61
2021/09/18 06:11:45;;;;;;;4.10;1.92;;;;;;;9.66;99.38;99406.91;1702161;82;20985;-61
2021/09/18 06:14:12;;;;;;;3.00;2.17;;;;;;;9.61;99.40;99406.69;1710743;82;20950;-62
2021/09/18 06:16:39;;;;;;;2.43;2.07;;;;;;;9.57;99.39;99410.34;1702303;81;20923;-61
2021/09/18 06:19:07;;;;;;;3.02;1.92;;;;;;;9.56;99.46;99403.45;1703677;82;20947;-62
2021/09/18 06:21:36;;;;;;;3.33;2.30;;;;;;;9.53;99.44;99407.51;1664694;83;21587;-62
2021/09/18 06:24:04;;;;;;;3.50;2.83;;;;;;;9.53;99.53;99414.02;1664905;85;20971;-62
2021/09/18 06:26:30;;;;;;;4.22;2.67;;;;;;;9.51;99.52;99422.36;1663787;84;21282;-61
2021/09/18 06:28:57;;;;;;;4.35;2.70;;;;;;;9.49;99.54;99417.67;1702853;82;20982;-62
2021/09/18 06:31:24;;;;;;;8.73;3.23;;;;;;;9.50;99.61;99422.45;1701004;82;20962;-62
2021/09/18 06:33:51;;;;;;;7.62;3.45;;;;;;;9.49;99.65;99426.80;1668868;85;21194;-63
2021/09/18 06:36:18;;;;;;;7.90;3.47;;;;;;;9.47;99.69;99435.17;1709655;82;20930;-62
2021/09/18 06:38:45;;;;;;;5.65;3.45;;;;;;;9.48;99.65;99432.94;1710303;82;21000;-62
2021/09/18 06:41:12;;;;;;;4.40;3.57;;;;;;;9.47;99.66;99431.27;1708048;82;21513;-62
2021/09/18 06:43:38;;;;;;;7.80;4.28;;;;;;;9.47;99.68;99435.17;1674652;84;20958;-62
2021/09/18 06:46:05;;;;;;;4.10;2.77;;;;;;;9.48;99.70;99425.59;1709160;82;21456;-62
2021/09/18 06:48:32;;;;;;;7.47;3.60;;;;;;;9.48;99.81;99438.16;1713681;81;20967;-62
2021/09/18 06:50:59;;;;;;;3.92;3.30;;;;;;;9.48;99.81;99438.16;1739374;80;20926;-62
2021/09/18 06:53:26;;;;;;;4.15;3.08;;;;;;;9.48;99.71;99444.67;1740222;80;20996;-62
2021/09/18 06:55:53;;;;;;;4.05;2.77;;;;;;;9.49;99.73;99448.95;1737709;80;20991;-62
2021/09/18 06:58:20;;;;;;;3.77;2.85;;;;;;;9.49;99.81;99446.34;1737286;80;21056;-62
2021/09/18 07:00:47;;;;;;;3.83;2.33;;;;;;;9.49;99.80;99441.13;1738697;81;21522;-62
2021/09/18 07:03:13;;;;;;;4.40;2.90;;;;;;;9.51;99.92;99452.34;1736618;80;20939;-62
2021/09/18 07:05:40;;;;;;;4.55;3.15;;;;;;;9.52;99.98;99444.92;1737895;80;22337;-62
2021/09/18 07:08:07;;;;;;;3.50;2.93;;;;;;;9.52;99.99;99444.92;1739449;80;20938;-62
2021/09/18 07:10:34;;;;;;;3.42;2.70;;;;;;;9.53;100.00;99453.12;1736214;82;21531;-62
2021/09/18 07:13:01;;;;;;;;;;;;;;;9.55;100.00;99453.90;1742614;80;20912;-61
2021/09/18 07:15:30;;;;;;;6.87;3.42;;;;;;;9.59;100.00;99452.83;1737778;80;20449;-63
2021/09/18 07:17:58;;;;;;;3.92;3.37;;;;;;;9.60;100.00;99453.20;1737611;80;22014;-64
2021/09/18 07:20:24;;;;;;;;;;;;;;;9.62;100.00;99463.10;1720730;82;21378;-61
2021/09/18 07:22:51;;;;;;;5.62;3.67;;;;;;;9.65;100.00;99471.23;1740089;80;21056;-62
2021/09/18 07:25:18;;;;;;;5.53;3.07;;;;;;;9.66;100.00;99473.38;1737980;80;20986;-61
2021/09/18 07:27:45;;;;;;;6.28;3.33;;;;;;;9.67;100.00;99472.48;1737466;81;20916;-63
2021/09/18 07:30:12;;;;;;;5.77;3.43;;;;;;;9.69;100.00;99471.93;1735096;80;20926;-62
2021/09/18 07:32:40;;;;;;;5.37;3.92;;;;;;;9.73;100.00;99470.88;1739186;80;21002;-62
2021/09/18 07:35:07;;;;;;;4.95;3.12;;;;;;;9.72;100.00;99471.78;1717388;82;22092;-63
2021/09/18 07:37:38;;;;;;;5.47;3.33;;;;;;;9.76;100.00;99466.82;1742453;80;20971;-64
2021/09/18 07:40:12;;;;;;;7.95;4.20;;;;;;;9.78;100.00;99476.73;1712984;81;33104;-64
2021/09/18 07:42:39;;;;;;;5.08;3.27;;;;;;;9.81;100.00;99472.66;1740584;81;20975;-65
2021/09/18 07:45:07;;;;;;;7.92;3.70;;;;;;;9.87;100.00;99482.80;1735033;80;21753;-63
2021/09/18 07:47:35;;;;;;;6.42;4.00;;;;;;;9.90;100.00;99481.34;1740263;80;21754;-64
2021/09/18 07:50:06;;;;;;;7.58;3.50;;;;;;;9.95;100.00;99477.22;1743016;80;20949;-62
2021/09/18 07:52:33;;;;;;;5.95;4.25;;;;;;;9.99;100.00;99477.44;1745186;80;21517;-64
2021/09/18 07:55:00;;;;;;;3.75;3.33;;;;;;;10.05;100.00;99498.00;1748353;80;21481;-64
2021/09/18 07:57:27;;;;;;;7.10;3.87;;;;;;;10.07;100.00;99482.66;1746395;80;20925;-64
2021/09/18 07:59:54;;;;;;;5.17;3.47;;;;;;;10.08;99.94;99480.46;1747347;80;22355;-64
2021/09/18 08:02:21;;;;;;;5.97;4.00;;;;;;;10.11;99.81;99490.33;1746564;80;20920;-63
2021/09/18 08:04:48;;;;;;;5.30;3.52;;;;;;;10.12;99.86;99483.75;1747806;80;20922;-63
2021/09/18 08:07:17;;;;;;;4.90;3.30;;;;;;;10.14;99.86;99487.57;1743015;80;20979;-69
2021/09/18 08:09:48;;;;;;;7.62;3.50;;;;;;;10.12;99.64;99489.44;1748237;80;21505;-67
2021/09/18 08:12:15;;;;;;;5.62;3.47;;;;;;;10.18;99.86;99486.52;1711984;81;21021;-62
2021/09/18 08:14:42;;;;;;;4.12;3.72;;;;;;;10.23;99.94;99485.84;1746134;80;20960;-63
2021/09/18 08:17:09;;;;;;;5.72;3.33;;;;;;;10.27;99.74;99495.22;1751968;80;20954;-62
2021/09/18 08:19:36;;;;;;;4.75;3.55;;;;;;;10.33;99.88;99494.91;1748333;80;20958;-62
2021/09/18 08:22:03;;;;;;;4.28;3.20;;;;;;;10.32;99.29;99498.45;1743795;80;20950;-62
2021/09/18 08:24:30;;;;;;;5.65;3.40;;;;;;;10.33;99.48;99496.22;1740915;80;21075;-63
2021/09/18 08:26:57;;;;;;;6.45;3.62;;;;;;;10.35;99.36;99513.95;1748136;81;20957;-62
2021/09/18 08:29:24;;;;;;;4.00;3.40;;;;;;;10.37;99.24;99496.46;1747056;80;20891;-63
2021/09/18 08:31:52;;;;;;;3.85;3.50;;;;;;;10.42;99.47;99498.39;1718034;81;20888;-62
2021/09/18 08:34:19;;;;;;;4.30;3.65;;;;;;;10.47;99.46;99504.23;1747446;80;20985;-63
2021/09/18 08:36:46;;;;;;;5.63;3.00;;;;;;;10.50;99.51;99497.55;1743919;80;21465;-64
2021/09/18 08:39:13;;;;;;;10.70;4.28;;;;;;;10.39;98.96;99490.71;1750419;80;21505;-64
2021/09/18 08:41:45;;;;;;;6.20;3.08;;;;;;;10.48;99.14;99510.28;1750404;80;20947;-62
2021/09/18 08:44:12;;;;;;;3.77;3.22;;;;;;;10.47;99.04;99505.53;1748486;80;21409;-63
2021/09/18 08:46:40;;;;;;;4.33;3.33;;;;;;;10.46;99.03;99510.34;1746732;80;20970;-63
2021/09/18 08:49:12;;;;;;;3.92;2.92;;;;;;;10.47;99.04;99513.36;1743164;80;21729;-63
2021/09/18 08:51:43;;;;;;;5.60;2.80;;;;;;;10.43;98.54;99520.11;1724865;81;20916;-63
2021/09/18 08:54:11;;;;;;;4.87;2.87;;;;;;;10.39;98.41;99508.98;1732703;80;21564;-63
2021/09/18 08:56:44;;;;;;;5.30;3.33;;;;;;;10.41;98.71;99517.56;1725401;81;21450;-63
2021/09/18 08:59:11;;;;;;;3.60;2.90;;;;;;;10.42;98.67;99508.83;1720552;81;21506;-63
2021/09/18 09:01:38;;;;;;;4.20;3.10;;;;;;;10.46;98.87;99518.18;1717295;81;21482;-62
2021/09/18 09:04:10;;;;;;;;;;;;;;;10.49;98.28;99523.24;1726847;81;21028;-61
2021/09/18 09:06:52;;;;;;;6.40;3.72;;;;;;;10.58;98.69;99522.40;1733618;80;20117;-61
2021/09/18 09:09:19;;;;;;;3.72;3.35;;;;;;;10.67;98.85;99526.72;1727768;81;20967;-61
2021/09/18 09:11:52;;;;;;;4.92;3.52;;;;;;;10.75;98.18;99521.08;1726914;80;21033;-61
2021/09/18 09:14:24;;;;;;;3.58;2.92;;;;;;;10.74;97.91;99519.40;1725070;81;21050;-61
2021/09/18 09:17:08;;;;;;;4.12;3.10;;;;;;;10.80;98.19;99532.14;1688501;81;20881;-62
2021/09/18 09:19:41;;;;;;;7.22;3.15;;;;;;;10.85;98.19;99517.08;1725865;81;21427;-61
2021/09/18 09:22:12;;;;;;;;;;;;;;;10.94;98.22;99528.82;1726209;81;20869;-61
2021/09/18 09:24:44;;;;;;;5.28;3.40;;;;;;;11.00;97.93;99527.66;1728072;81;20127;-62
2021/09/18 09:27:14;;;;;;;4.22;3.67;;;;;;;11.10;97.86;99528.87;1716712;81;21136;-61
2021/09/18 09:29:54;;;;;;;5.08;3.55;;;;;;;11.29;98.21;99529.59;1719305;81;21494;-61
2021/09/18 09:32:34;;;;;;;5.40;3.20;;;;;;;11.32;96.69;99538.58;1717603;81;20932;-64
2021/09/18 09:35:09;;;;;;;6.17;3.65;;;;;;;11.32;96.50;99537.27;1701976;81;20920;-61
2021/09/18 09:37:37;;;;;;;6.10;3.15;;;;;;;11.35;97.32;99534.48;1683458;83;20946;-61
2021/09/18 09:40:08;;;;;;;8.15;3.83;;;;;;;11.32;96.45;99541.19;1679578;83;21169;-61
2021/09/18 09:42:42;;;;;;;3.90;3.50;;;;;;;11.38;97.16;99539.55;1718843;81;20907;-61
2021/09/18 09:45:13;;;;;;;4.87;3.92;;;;;;;11.39;96.50;99541.69;1719001;81;20916;-61
2021/09/18 09:47:40;;;;;;;5.78;4.15;;;;;;;11.44;96.75;99542.30;1697559;82;21456;-61
2021/09/18 09:50:08;;;;;;;5.12;4.20;;;;;;;11.45;96.36;99544.44;1732998;80;21048;-61
2021/09/18 09:52:36;;;;;;;;;;;;;;;11.35;95.09;99544.94;1740973;80;21124;-61
2021/09/18 09:55:15;;;;;;;5.62;3.98;;;;;;;11.34;96.03;99545.01;1725189;80;20454;-61
2021/09/18 09:57:46;;;;;;;4.08;3.50;;;;;;;11.40;96.70;99548.16;1737335;80;20949;-61
2021/09/18 10:00:16;;;;;;;10.90;4.00;;;;;;;11.39;95.47;99549.06;1737653;80;20900;-61
2021/09/18 10:02:44;;;;;;;4.33;3.35;;;;;;;11.42;95.12;99548.90;1735291;80;20971;-61
2021/09/18 10:05:14;;;;;;;4.87;3.40;;;;;;;11.53;95.82;99556.64;1741075;80;21046;-61
2021/09/18 10:07:43;;;;;;;5.90;3.98;;;;;;;11.56;94.56;99555.16;1738915;80;20964;-61
2021/09/18 10:10:12;;;;;;;4.22;3.60;;;;;;;11.64;95.29;99556.91;1735536;80;20899;-61
2021/09/18 10:12:40;;;;;;;5.37;3.83;;;;;;;11.75;95.93;99559.78;1717603;81;20955;-60
2021/09/18 10:15:10;;;;;;;4.10;3.62;;;;;;;11.83;96.07;99553.67;1725087;80;20934;-61
2021/09/18 10:17:42;;;;;;;8.05;3.70;;;;;;;11.77;94.29;99557.94;1740584;80;21218;-61
2021/09/18 10:20:12;;;;;;;6.12;3.85;;;;;;;11.82;95.71;99561.62;1740594;80;21090;-61
2021/09/18 10:25:33;;;;;;;5.50;3.98;;;;;;;11.67;93.53;99563.28;1737969;80;20994;-61
2021/09/18 10:28:10;;;;;;;6.45;3.60;;;;;;;11.75;94.67;99564.17;1739592;80;21091;-61
2021/09/18 10:30:47;;;;;;;5.15;3.50;;;;;;;11.93;95.22;99568.44;1739591;80;21093;-61
2021/09/18 10:33:37;;;;;;;5.10;3.10;;;;;;;11.93;92.74;99581.96;1735693;80;20907;-61
2021/09/18 10:36:10;;;;;;;4.10;3.20;;;;;;;11.85;91.54;99566.23;1736116;80;20923;-62
2021/09/18 10:38:47;;;;;;;3.85;3.10;;;;;;;11.91;93.39;99578.61;1740641;80;20978;-62
2021/09/18 10:41:28;;;;;;;4.35;2.87;;;;;;;12.08;94.19;99573.28;1702915;82;20963;-62
2021/09/18 10:44:00;;;;;;;5.33;3.05;;;;;;;12.07;91.78;99572.88;1684433;83;21465;-62
2021/09/18 10:46:55;;;;;;;3.17;2.83;;;;;;;12.01;90.81;99574.53;1687505;83;21461;-62
2021/09/18 10:49:40;;;;;;;3.87;3.05;;;;;;;11.93;91.17;99579.34;1709521;82;22971;-62
2021/09/18 10:52:24;;;;;;;8.33;2.95;;;;;;;11.96;92.44;99569.58;1696271;83;21484;-62
2021/09/18 10:55:06;;;;;;;4.97;2.80;;;;;;;11.86;91.26;99578.38;1672363;83;20939;-60
2021/09/18 10:57:51;;;;;;;3.65;2.55;;;;;;;11.82;89.73;99600.86;1723578;80;21578;-61
2021/09/18 11:00:32;;;;;;;9.20;2.77;;;;;;;11.71;88.91;99580.98;1725110;80;20965;-62
2021/09/18 11:03:01;;;;;;;6.03;2.95;;;;;;;11.80;88.28;99576.55;1686822;82;20948;-62
2021/09/18 11:05:39;;;;;;;6.58;2.70;;;;;;;12.04;89.37;99591.38;1704666;82;20941;-62
2021/09/18 11:08:19;;;;;;;4.42;2.10;;;;;;;12.04;89.37;99591.38;1723983;80;20950;-62
2021/09/18 11:10:57;;;;;;;2.62;2.35;;;;;;;11.99;89.44;99594.73;1720455;81;21036;-62
2021/09/18 11:13:28;;;;;;;4.58;2.42;;;;;;;12.04;89.49;99596.61;1687689;82;26882;-61
2021/09/18 11:16:04;;;;;;;6.47;2.40;;;;;;;12.03;89.26;99606.70;1668035;83;21057;-61
2021/09/18 11:18:42;;;;;;;3.60;2.27;;;;;;;12.00;89.25;99595.10;1735429;80;21016;-62
2021/09/18 11:21:23;;;;;;;2.85;1.90;;;;;;;11.79;86.67;99601.86;1731611;80;20949;-61
2021/09/18 11:23:57;;;;;;;4.62;2.25;;;;;;;11.74;88.13;99605.19;1727119;80;21895;-62
2021/09/18 11:26:38;;;;;;;3.25;2.05;;;;;;;11.84;89.43;99610.75;1689572;82;20980;-62
2021/09/18 11:29:35;;;;;;;3.22;2.35;;;;;;;11.90;89.22;99601.28;1723771;80;21684;-62
2021/09/18 11:32:21;;;;;;;7.00;1.87;;;;;;;11.84;84.73;99608.97;1701381;81;20873;-61
2021/09/18 11:34:55;;;;;;;3.40;2.07;;;;;;;11.82;88.09;99614.78;1724243;81;21468;-61
2021/09/18 11:37:32;;;;;;;3.52;2.17;;;;;;;11.79;89.38;99611.02;1735607;80;21022;-61
2021/09/18 11:40:03;;;;;;;5.28;2.25;;;;;;;11.75;87.50;99608.17;1738874;80;20933;-61
2021/09/18 11:42:37;;;;;;;3.35;2.10;;;;;;;11.68;87.26;99610.75;1719620;81;20917;-61
2021/09/18 11:45:10;;;;;;;2.62;2.05;;;;;;;11.68;85.78;99622.52;1718666;81;20932;-61
2021/09/18 11:47:42;;;;;;;2.25;2.02;;;;;;;11.51;85.79;99626.03;1737126;80;21390;-60